sensor_id;sensor_type;location;lat;lon;timestamp;P1;durP1;ratioP1;P2;durP2;ratioP2
65896;SDS011;52677;50.898;10.854;2024-01-27T00:01:30;4.78;;;1.40;;
65896;SDS011;52677;50.898;10.854;2024-01-27T00:03:30;10.90;;;2.00;;
65896;SDS011;52677;50.898;10.854;2024-01-27T00:05:31;11.30;;;1.90;;
65896;SDS011;52677;50.898;10.854;2024-01-27T00:07:31;8.05;;;1.92;;
65896;SDS011;52677;50.898;10.854;2024-01-27T00:09:31;6.00;;;1.60;;
65896;SDS011;52677;50.898;10.854;2024-01-27T00:11:32;5.72;;;2.00;;
65896;SDS011;52677;50.898;10.854;2024-01-27T00:13:32;8.57;;;1.50;;
65896;SDS011;52677;50.898;10.854;2024-01-27T00:15:32;6.03;;;1.48;;
65896;SDS011;52677;50.898;10.854;2024-01-27T00:17:33;4.70;;;1.20;;
65896;SDS011;52677;50.898;10.854;2024-01-27T00:19:35;4.20;;;1.30;;
65896;SDS011;52677;50.898;10.854;2024-01-27T00:21:36;7.45;;;1.50;;
65896;SDS011;52677;50.898;10.854;2024-01-27T00:23:36;6.50;;;2.45;;
65896;SDS011;52677;50.898;10.854;2024-01-27T00:25:36;3.40;;;1.10;;
65896;SDS011;52677;50.898;10.854;2024-01-27T00:27:37;6.82;;;1.40;;
65896;SDS011;52677;50.898;10.854;2024-01-27T00:29:37;4.28;;;1.65;;
65896;SDS011;52677;50.898;10.854;2024-01-27T00:31:37;3.42;;;1.00;;
65896;SDS011;52677;50.898;10.854;2024-01-27T00:33:38;5.25;;;1.55;;
65896;SDS011;52677;50.898;10.854;2024-01-27T00:35:38;4.13;;;1.25;;
65896;SDS011;52677;50.898;10.854;2024-01-27T00:37:39;5.80;;;1.45;;
65896;SDS011;52677;50.898;10.854;2024-01-27T00:39:39;8.38;;;1.80;;
65896;SDS011;52677;50.898;10.854;2024-01-27T00:41:40;5.03;;;1.45;;
65896;SDS011;52677;50.898;10.854;2024-01-27T00:43:40;10.25;;;2.03;;
65896;SDS011;52677;50.898;10.854;2024-01-27T00:45:41;5.15;;;1.67;;
65896;SDS011;52677;50.898;10.854;2024-01-27T00:47:41;4.10;;;1.50;;
65896;SDS011;52677;50.898;10.854;2024-01-27T00:49:41;3.53;;;1.50;;
65896;SDS011;52677;50.898;10.854;2024-01-27T00:51:42;4.28;;;1.30;;
65896;SDS011;52677;50.898;10.854;2024-01-27T00:53:42;7.05;;;1.77;;
65896;SDS011;52677;50.898;10.854;2024-01-27T00:55:42;4.68;;;2.42;;
65896;SDS011;52677;50.898;10.854;2024-01-27T00:57:43;6.57;;;1.60;;
65896;SDS011;52677;50.898;10.854;2024-01-27T00:59:43;6.03;;;1.67;;
65896;SDS011;52677;50.898;10.854;2024-01-27T01:01:43;7.18;;;1.75;;
65896;SDS011;52677;50.898;10.854;2024-01-27T01:03:44;11.00;;;1.70;;
65896;SDS011;52677;50.898;10.854;2024-01-27T01:05:45;5.32;;;1.92;;
65896;SDS011;52677;50.898;10.854;2024-01-27T01:07:46;13.85;;;2.17;;
65896;SDS011;52677;50.898;10.854;2024-01-27T01:09:46;6.63;;;1.60;;
65896;SDS011;52677;50.898;10.854;2024-01-27T01:11:46;7.60;;;1.45;;
65896;SDS011;52677;50.898;10.854;2024-01-27T01:13:46;5.63;;;1.50;;
65896;SDS011;52677;50.898;10.854;2024-01-27T01:15:47;4.80;;;1.20;;
65896;SDS011;52677;50.898;10.854;2024-01-27T01:17:47;5.72;;;1.52;;
65896;SDS011;52677;50.898;10.854;2024-01-27T01:19:48;4.07;;;1.63;;
65896;SDS011;52677;50.898;10.854;2024-01-27T01:21:49;5.82;;;1.45;;
65896;SDS011;52677;50.898;10.854;2024-01-27T01:23:49;7.40;;;1.70;;
65896;SDS011;52677;50.898;10.854;2024-01-27T01:25:49;4.47;;;1.45;;
65896;SDS011;52677;50.898;10.854;2024-01-27T01:27:50;7.00;;;1.75;;
65896;SDS011;52677;50.898;10.854;2024-01-27T01:29:50;3.53;;;1.40;;
65896;SDS011;52677;50.898;10.854;2024-01-27T01:31:50;3.50;;;1.30;;
65896;SDS011;52677;50.898;10.854;2024-01-27T01:33:51;2.05;;;1.20;;
65896;SDS011;52677;50.898;10.854;2024-01-27T01:35:51;6.13;;;1.63;;
65896;SDS011;52677;50.898;10.854;2024-01-27T01:37:52;5.38;;;1.70;;
65896;SDS011;52677;50.898;10.854;2024-01-27T01:39:52;5.72;;;1.90;;
65896;SDS011;52677;50.898;10.854;2024-01-27T01:41:52;4.25;;;1.85;;
65896;SDS011;52677;50.898;10.854;2024-01-27T01:43:53;4.20;;;1.98;;
65896;SDS011;52677;50.898;10.854;2024-01-27T01:45:53;6.93;;;1.48;;
65896;SDS011;52677;50.898;10.854;2024-01-27T01:47:53;6.13;;;2.17;;
65896;SDS011;52677;50.898;10.854;2024-01-27T01:49:54;10.30;;;1.70;;
65896;SDS011;52677;50.898;10.854;2024-01-27T01:51:55;6.13;;;1.60;;
65896;SDS011;52677;50.898;10.854;2024-01-27T01:53:59;7.28;;;2.63;;
65896;SDS011;52677;50.898;10.854;2024-01-27T01:56:00;4.85;;;2.05;;
65896;SDS011;52677;50.898;10.854;2024-01-27T01:58:01;9.85;;;2.72;;
65896;SDS011;52677;50.898;10.854;2024-01-27T02:00:01;6.80;;;1.45;;
65896;SDS011;52677;50.898;10.854;2024-01-27T02:02:02;5.25;;;1.52;;
65896;SDS011;52677;50.898;10.854;2024-01-27T02:04:04;8.68;;;2.78;;
65896;SDS011;52677;50.898;10.854;2024-01-27T02:06:04;7.50;;;1.50;;
65896;SDS011;52677;50.898;10.854;2024-01-27T02:08:06;5.38;;;1.60;;
65896;SDS011;52677;50.898;10.854;2024-01-27T02:10:15;11.05;;;1.80;;
65896;SDS011;52677;50.898;10.854;2024-01-27T02:12:17;11.30;;;4.18;;
65896;SDS011;52677;50.898;10.854;2024-01-27T02:14:17;5.55;;;1.50;;
65896;SDS011;52677;50.898;10.854;2024-01-27T02:16:17;7.22;;;1.45;;
65896;SDS011;52677;50.898;10.854;2024-01-27T02:18:18;9.55;;;1.80;;
65896;SDS011;52677;50.898;10.854;2024-01-27T02:20:18;7.82;;;1.58;;
65896;SDS011;52677;50.898;10.854;2024-01-27T02:22:18;5.07;;;2.00;;
65896;SDS011;52677;50.898;10.854;2024-01-27T02:24:19;4.38;;;1.92;;
65896;SDS011;52677;50.898;10.854;2024-01-27T02:26:19;8.93;;;1.75;;
65896;SDS011;52677;50.898;10.854;2024-01-27T02:28:19;7.18;;;1.83;;
65896;SDS011;52677;50.898;10.854;2024-01-27T02:30:20;6.05;;;1.63;;
65896;SDS011;52677;50.898;10.854;2024-01-27T02:32:20;8.43;;;1.73;;
65896;SDS011;52677;50.898;10.854;2024-01-27T02:34:20;8.95;;;1.90;;
65896;SDS011;52677;50.898;10.854;2024-01-27T02:36:21;7.13;;;1.77;;
65896;SDS011;52677;50.898;10.854;2024-01-27T02:38:21;11.23;;;1.95;;
65896;SDS011;52677;50.898;10.854;2024-01-27T02:40:21;7.38;;;1.48;;
65896;SDS011;52677;50.898;10.854;2024-01-27T02:42:22;8.93;;;1.83;;
65896;SDS011;52677;50.898;10.854;2024-01-27T02:44:23;7.35;;;1.70;;
65896;SDS011;52677;50.898;10.854;2024-01-27T02:46:23;4.65;;;1.70;;
65896;SDS011;52677;50.898;10.854;2024-01-27T02:48:24;5.65;;;1.52;;
65896;SDS011;52677;50.898;10.854;2024-01-27T02:50:24;10.20;;;2.20;;
65896;SDS011;52677;50.898;10.854;2024-01-27T02:52:25;8.77;;;1.92;;
65896;SDS011;52677;50.898;10.854;2024-01-27T02:54:25;7.93;;;1.80;;
65896;SDS011;52677;50.898;10.854;2024-01-27T02:56:27;6.35;;;1.75;;
65896;SDS011;52677;50.898;10.854;2024-01-27T02:58:27;5.90;;;2.00;;
65896;SDS011;52677;50.898;10.854;2024-01-27T03:00:28;11.65;;;2.00;;
65896;SDS011;52677;50.898;10.854;2024-01-27T03:02:28;4.68;;;1.80;;
65896;SDS011;52677;50.898;10.854;2024-01-27T03:04:29;6.68;;;1.85;;
65896;SDS011;52677;50.898;10.854;2024-01-27T03:06:29;5.90;;;2.30;;
65896;SDS011;52677;50.898;10.854;2024-01-27T03:08:29;11.57;;;2.35;;
65896;SDS011;52677;50.898;10.854;2024-01-27T03:10:29;4.05;;;1.88;;
65896;SDS011;52677;50.898;10.854;2024-01-27T03:12:31;6.88;;;2.47;;
65896;SDS011;52677;50.898;10.854;2024-01-27T03:14:32;15.50;;;2.50;;
65896;SDS011;52677;50.898;10.854;2024-01-27T03:16:33;6.03;;;2.13;;
65896;SDS011;52677;50.898;10.854;2024-01-27T03:18:33;7.00;;;1.85;;
65896;SDS011;52677;50.898;10.854;2024-01-27T03:20:33;7.93;;;2.20;;
65896;SDS011;52677;50.898;10.854;2024-01-27T03:22:34;9.57;;;2.40;;
65896;SDS011;52677;50.898;10.854;2024-01-27T03:24:34;7.78;;;2.08;;
65896;SDS011;52677;50.898;10.854;2024-01-27T03:26:34;5.68;;;2.17;;
65896;SDS011;52677;50.898;10.854;2024-01-27T03:28:35;8.05;;;1.73;;
65896;SDS011;52677;50.898;10.854;2024-01-27T03:30:35;11.27;;;2.25;;
65896;SDS011;52677;50.898;10.854;2024-01-27T03:32:35;6.53;;;2.15;;
65896;SDS011;52677;50.898;10.854;2024-01-27T03:34:37;8.57;;;1.60;;
65896;SDS011;52677;50.898;10.854;2024-01-27T03:36:47;5.60;;;2.60;;
65896;SDS011;52677;50.898;10.854;2024-01-27T03:38:48;3.35;;;2.00;;
65896;SDS011;52677;50.898;10.854;2024-01-27T03:40:48;4.38;;;1.50;;
65896;SDS011;52677;50.898;10.854;2024-01-27T03:42:48;5.55;;;2.20;;
65896;SDS011;52677;50.898;10.854;2024-01-27T03:44:48;7.65;;;2.33;;
65896;SDS011;52677;50.898;10.854;2024-01-27T03:46:49;11.25;;;2.60;;
65896;SDS011;52677;50.898;10.854;2024-01-27T03:48:51;5.32;;;1.80;;
65896;SDS011;52677;50.898;10.854;2024-01-27T03:50:51;7.53;;;2.55;;
65896;SDS011;52677;50.898;10.854;2024-01-27T03:52:52;7.82;;;2.30;;
65896;SDS011;52677;50.898;10.854;2024-01-27T03:54:52;5.45;;;2.20;;
65896;SDS011;52677;50.898;10.854;2024-01-27T03:56:54;12.38;;;2.28;;
65896;SDS011;52677;50.898;10.854;2024-01-27T03:58:54;11.38;;;3.08;;
65896;SDS011;52677;50.898;10.854;2024-01-27T04:00:55;9.63;;;3.78;;
65896;SDS011;52677;50.898;10.854;2024-01-27T04:02:56;6.15;;;1.98;;
65896;SDS011;52677;50.898;10.854;2024-01-27T04:04:56;7.43;;;2.17;;
65896;SDS011;52677;50.898;10.854;2024-01-27T04:06:57;5.43;;;1.77;;
65896;SDS011;52677;50.898;10.854;2024-01-27T04:08:57;8.25;;;1.90;;
65896;SDS011;52677;50.898;10.854;2024-01-27T04:10:57;5.43;;;2.13;;
65896;SDS011;52677;50.898;10.854;2024-01-27T04:12:58;8.20;;;2.78;;
65896;SDS011;52677;50.898;10.854;2024-01-27T04:14:58;9.27;;;2.17;;
65896;SDS011;52677;50.898;10.854;2024-01-27T04:16:59;6.65;;;2.00;;
65896;SDS011;52677;50.898;10.854;2024-01-27T04:19:00;5.43;;;1.73;;
65896;SDS011;52677;50.898;10.854;2024-01-27T04:21:00;8.13;;;2.30;;
65896;SDS011;52677;50.898;10.854;2024-01-27T04:23:01;9.13;;;2.10;;
65896;SDS011;52677;50.898;10.854;2024-01-27T04:25:01;5.97;;;1.77;;
65896;SDS011;52677;50.898;10.854;2024-01-27T04:27:03;9.07;;;2.25;;
65896;SDS011;52677;50.898;10.854;2024-01-27T04:29:04;6.30;;;2.30;;
65896;SDS011;52677;50.898;10.854;2024-01-27T04:31:04;6.53;;;1.92;;
65896;SDS011;52677;50.898;10.854;2024-01-27T04:33:05;5.65;;;3.08;;
65896;SDS011;52677;50.898;10.854;2024-01-27T04:35:10;6.07;;;2.42;;
65896;SDS011;52677;50.898;10.854;2024-01-27T04:37:11;9.43;;;2.30;;
65896;SDS011;52677;50.898;10.854;2024-01-27T04:39:11;4.53;;;2.05;;
65896;SDS011;52677;50.898;10.854;2024-01-27T04:41:13;7.47;;;2.60;;
65896;SDS011;52677;50.898;10.854;2024-01-27T04:43:17;6.25;;;2.20;;
65896;SDS011;52677;50.898;10.854;2024-01-27T04:45:18;6.35;;;2.50;;
65896;SDS011;52677;50.898;10.854;2024-01-27T04:47:18;8.60;;;2.45;;
65896;SDS011;52677;50.898;10.854;2024-01-27T04:49:19;10.32;;;2.35;;
65896;SDS011;52677;50.898;10.854;2024-01-27T04:51:19;6.15;;;3.00;;
65896;SDS011;52677;50.898;10.854;2024-01-27T04:53:19;5.15;;;2.17;;
65896;SDS011;52677;50.898;10.854;2024-01-27T04:55:20;11.90;;;2.90;;
65896;SDS011;52677;50.898;10.854;2024-01-27T04:57:20;6.68;;;2.38;;
65896;SDS011;52677;50.898;10.854;2024-01-27T04:59:20;8.50;;;2.47;;
65896;SDS011;52677;50.898;10.854;2024-01-27T05:01:21;5.57;;;2.13;;
65896;SDS011;52677;50.898;10.854;2024-01-27T05:03:21;5.05;;;2.20;;
65896;SDS011;52677;50.898;10.854;2024-01-27T05:05:22;5.35;;;1.88;;
65896;SDS011;52677;50.898;10.854;2024-01-27T05:07:22;10.70;;;2.70;;
65896;SDS011;52677;50.898;10.854;2024-01-27T05:09:22;5.78;;;2.10;;
65896;SDS011;52677;50.898;10.854;2024-01-27T05:11:28;7.00;;;2.22;;
65896;SDS011;52677;50.898;10.854;2024-01-27T05:13:30;5.38;;;2.40;;
65896;SDS011;52677;50.898;10.854;2024-01-27T05:15:30;8.05;;;2.35;;
65896;SDS011;52677;50.898;10.854;2024-01-27T05:17:30;6.80;;;2.50;;
65896;SDS011;52677;50.898;10.854;2024-01-27T05:19:30;8.48;;;2.33;;
65896;SDS011;52677;50.898;10.854;2024-01-27T05:21:31;4.00;;;1.88;;
65896;SDS011;52677;50.898;10.854;2024-01-27T05:23:31;10.02;;;2.50;;
65896;SDS011;52677;50.898;10.854;2024-01-27T05:25:31;7.35;;;2.33;;
65896;SDS011;52677;50.898;10.854;2024-01-27T05:27:32;8.85;;;2.50;;
65896;SDS011;52677;50.898;10.854;2024-01-27T05:29:32;10.10;;;2.22;;
65896;SDS011;52677;50.898;10.854;2024-01-27T05:31:32;9.48;;;2.40;;
65896;SDS011;52677;50.898;10.854;2024-01-27T05:33:33;4.65;;;2.20;;
65896;SDS011;52677;50.898;10.854;2024-01-27T05:35:33;6.07;;;2.30;;
65896;SDS011;52677;50.898;10.854;2024-01-27T05:37:33;7.90;;;1.92;;
65896;SDS011;52677;50.898;10.854;2024-01-27T05:39:34;5.82;;;2.22;;
65896;SDS011;52677;50.898;10.854;2024-01-27T05:41:34;7.05;;;2.50;;
65896;SDS011;52677;50.898;10.854;2024-01-27T05:43:34;5.20;;;2.45;;
65896;SDS011;52677;50.898;10.854;2024-01-27T05:45:35;13.98;;;2.92;;
65896;SDS011;52677;50.898;10.854;2024-01-27T05:47:35;6.85;;;2.15;;
65896;SDS011;52677;50.898;10.854;2024-01-27T05:49:35;8.07;;;2.15;;
65896;SDS011;52677;50.898;10.854;2024-01-27T05:51:36;10.57;;;2.60;;
65896;SDS011;52677;50.898;10.854;2024-01-27T05:53:36;7.07;;;2.53;;
65896;SDS011;52677;50.898;10.854;2024-01-27T05:55:37;10.90;;;2.47;;
65896;SDS011;52677;50.898;10.854;2024-01-27T05:57:37;9.80;;;2.40;;
65896;SDS011;52677;50.898;10.854;2024-01-27T05:59:37;6.45;;;2.17;;
65896;SDS011;52677;50.898;10.854;2024-01-27T06:01:38;9.23;;;2.85;;
65896;SDS011;52677;50.898;10.854;2024-01-27T06:05:41;5.90;;;2.25;;
65896;SDS011;52677;50.898;10.854;2024-01-27T06:07:42;2.53;;;2.15;;
65896;SDS011;52677;50.898;10.854;2024-01-27T06:09:42;7.72;;;2.65;;
65896;SDS011;52677;50.898;10.854;2024-01-27T06:11:43;9.38;;;2.67;;
65896;SDS011;52677;50.898;10.854;2024-01-27T06:13:43;7.53;;;2.78;;
65896;SDS011;52677;50.898;10.854;2024-01-27T06:15:47;10.70;;;3.00;;
65896;SDS011;52677;50.898;10.854;2024-01-27T06:17:48;10.30;;;2.83;;
65896;SDS011;52677;50.898;10.854;2024-01-27T06:19:48;7.15;;;2.50;;
65896;SDS011;52677;50.898;10.854;2024-01-27T06:21:48;9.05;;;2.92;;
65896;SDS011;52677;50.898;10.854;2024-01-27T06:23:49;13.77;;;3.58;;
65896;SDS011;52677;50.898;10.854;2024-01-27T06:25:49;10.32;;;2.55;;
65896;SDS011;52677;50.898;10.854;2024-01-27T06:27:49;8.25;;;2.58;;
65896;SDS011;52677;50.898;10.854;2024-01-27T06:29:50;8.30;;;2.75;;
65896;SDS011;52677;50.898;10.854;2024-01-27T06:31:50;6.65;;;2.88;;
65896;SDS011;52677;50.898;10.854;2024-01-27T06:33:50;9.65;;;2.95;;
65896;SDS011;52677;50.898;10.854;2024-01-27T06:35:51;8.98;;;2.65;;
65896;SDS011;52677;50.898;10.854;2024-01-27T06:37:51;13.82;;;3.15;;
65896;SDS011;52677;50.898;10.854;2024-01-27T06:39:51;11.65;;;3.25;;
65896;SDS011;52677;50.898;10.854;2024-01-27T06:41:51;7.45;;;2.88;;
65896;SDS011;52677;50.898;10.854;2024-01-27T06:43:52;9.60;;;2.33;;
65896;SDS011;52677;50.898;10.854;2024-01-27T06:45:52;5.97;;;2.55;;
65896;SDS011;52677;50.898;10.854;2024-01-27T06:47:52;5.20;;;2.45;;
65896;SDS011;52677;50.898;10.854;2024-01-27T06:49:53;4.72;;;3.00;;
65896;SDS011;52677;50.898;10.854;2024-01-27T06:51:53;7.72;;;3.03;;
65896;SDS011;52677;50.898;10.854;2024-01-27T06:53:53;13.32;;;4.07;;
65896;SDS011;52677;50.898;10.854;2024-01-27T06:55:53;11.75;;;3.53;;
65896;SDS011;52677;50.898;10.854;2024-01-27T06:57:54;9.43;;;3.38;;
65896;SDS011;52677;50.898;10.854;2024-01-27T06:59:54;6.45;;;3.05;;
65896;SDS011;52677;50.898;10.854;2024-01-27T07:01:55;5.40;;;3.22;;
65896;SDS011;52677;50.898;10.854;2024-01-27T07:03:56;13.55;;;4.38;;
65896;SDS011;52677;50.898;10.854;2024-01-27T07:05:56;9.20;;;4.28;;
65896;SDS011;52677;50.898;10.854;2024-01-27T07:07:56;8.13;;;4.28;;
65896;SDS011;52677;50.898;10.854;2024-01-27T07:09:57;10.15;;;3.30;;
65896;SDS011;52677;50.898;10.854;2024-01-27T07:11:57;10.70;;;3.90;;
65896;SDS011;52677;50.898;10.854;2024-01-27T07:13:58;20.27;;;7.03;;
65896;SDS011;52677;50.898;10.854;2024-01-27T07:15:58;24.00;;;9.48;;
65896;SDS011;52677;50.898;10.854;2024-01-27T07:17:59;12.60;;;4.93;;
65896;SDS011;52677;50.898;10.854;2024-01-27T07:19:59;15.82;;;4.45;;
65896;SDS011;52677;50.898;10.854;2024-01-27T07:21:59;8.75;;;4.32;;
65896;SDS011;52677;50.898;10.854;2024-01-27T07:23:59;11.10;;;4.65;;
65896;SDS011;52677;50.898;10.854;2024-01-27T07:26:00;9.07;;;3.55;;
65896;SDS011;52677;50.898;10.854;2024-01-27T07:28:03;11.48;;;4.40;;
65896;SDS011;52677;50.898;10.854;2024-01-27T07:30:04;8.90;;;3.90;;
65896;SDS011;52677;50.898;10.854;2024-01-27T07:32:06;15.05;;;3.85;;
65896;SDS011;52677;50.898;10.854;2024-01-27T07:34:08;10.43;;;3.20;;
65896;SDS011;52677;50.898;10.854;2024-01-27T07:36:09;11.98;;;3.30;;
65896;SDS011;52677;50.898;10.854;2024-01-27T07:38:11;8.63;;;3.03;;
65896;SDS011;52677;50.898;10.854;2024-01-27T07:40:11;8.10;;;2.90;;
65896;SDS011;52677;50.898;10.854;2024-01-27T07:42:12;9.77;;;3.20;;
65896;SDS011;52677;50.898;10.854;2024-01-27T07:44:15;9.45;;;3.70;;
65896;SDS011;52677;50.898;10.854;2024-01-27T07:46:18;15.25;;;3.47;;
65896;SDS011;52677;50.898;10.854;2024-01-27T07:48:21;7.35;;;3.15;;
65896;SDS011;52677;50.898;10.854;2024-01-27T07:50:22;14.00;;;4.47;;
65896;SDS011;52677;50.898;10.854;2024-01-27T07:52:23;7.75;;;3.53;;
65896;SDS011;52677;50.898;10.854;2024-01-27T07:54:23;10.18;;;4.10;;
65896;SDS011;52677;50.898;10.854;2024-01-27T07:56:24;9.20;;;3.22;;
65896;SDS011;52677;50.898;10.854;2024-01-27T07:58:24;14.45;;;4.50;;
65896;SDS011;52677;50.898;10.854;2024-01-27T08:00:24;10.98;;;3.58;;
65896;SDS011;52677;50.898;10.854;2024-01-27T08:02:25;6.43;;;3.67;;
65896;SDS011;52677;50.898;10.854;2024-01-27T08:04:26;10.65;;;3.17;;
65896;SDS011;52677;50.898;10.854;2024-01-27T08:06:28;11.93;;;4.07;;
65896;SDS011;52677;50.898;10.854;2024-01-27T08:08:29;12.00;;;4.07;;
65896;SDS011;52677;50.898;10.854;2024-01-27T08:10:30;8.25;;;3.80;;
65896;SDS011;52677;50.898;10.854;2024-01-27T08:12:30;16.20;;;4.50;;
65896;SDS011;52677;50.898;10.854;2024-01-27T08:14:31;10.05;;;3.55;;
65896;SDS011;52677;50.898;10.854;2024-01-27T08:16:31;8.55;;;2.97;;
65896;SDS011;52677;50.898;10.854;2024-01-27T08:18:31;9.18;;;3.35;;
65896;SDS011;52677;50.898;10.854;2024-01-27T08:20:31;7.35;;;3.30;;
65896;SDS011;52677;50.898;10.854;2024-01-27T08:22:32;4.60;;;3.00;;
65896;SDS011;52677;50.898;10.854;2024-01-27T08:24:32;10.55;;;3.00;;
65896;SDS011;52677;50.898;10.854;2024-01-27T08:26:32;6.60;;;3.05;;
65896;SDS011;52677;50.898;10.854;2024-01-27T08:28:33;10.38;;;3.28;;
65896;SDS011;52677;50.898;10.854;2024-01-27T08:30:33;14.48;;;3.67;;
65896;SDS011;52677;50.898;10.854;2024-01-27T08:32:33;11.57;;;3.10;;
65896;SDS011;52677;50.898;10.854;2024-01-27T08:34:34;11.32;;;3.78;;
65896;SDS011;52677;50.898;10.854;2024-01-27T08:36:35;11.13;;;3.20;;
65896;SDS011;52677;50.898;10.854;2024-01-27T08:38:35;13.68;;;3.78;;
65896;SDS011;52677;50.898;10.854;2024-01-27T08:40:35;8.30;;;3.13;;
65896;SDS011;52677;50.898;10.854;2024-01-27T08:42:36;14.60;;;3.90;;
65896;SDS011;52677;50.898;10.854;2024-01-27T08:44:36;8.68;;;3.35;;
65896;SDS011;52677;50.898;10.854;2024-01-27T08:46:36;7.93;;;3.35;;
65896;SDS011;52677;50.898;10.854;2024-01-27T08:48:37;19.38;;;4.00;;
65896;SDS011;52677;50.898;10.854;2024-01-27T08:50:38;12.68;;;3.45;;
65896;SDS011;52677;50.898;10.854;2024-01-27T08:52:39;9.05;;;2.80;;
65896;SDS011;52677;50.898;10.854;2024-01-27T08:54:39;15.52;;;3.78;;
65896;SDS011;52677;50.898;10.854;2024-01-27T08:56:41;10.95;;;3.42;;
65896;SDS011;52677;50.898;10.854;2024-01-27T08:58:41;9.02;;;3.25;;
65896;SDS011;52677;50.898;10.854;2024-01-27T09:00:43;13.70;;;3.97;;
65896;SDS011;52677;50.898;10.854;2024-01-27T09:02:43;9.77;;;3.42;;
65896;SDS011;52677;50.898;10.854;2024-01-27T09:04:44;11.20;;;3.42;;
65896;SDS011;52677;50.898;10.854;2024-01-27T09:06:44;14.38;;;3.47;;
65896;SDS011;52677;50.898;10.854;2024-01-27T09:08:44;8.02;;;3.55;;
65896;SDS011;52677;50.898;10.854;2024-01-27T09:10:45;10.52;;;3.58;;
65896;SDS011;52677;50.898;10.854;2024-01-27T09:12:45;7.28;;;3.47;;
65896;SDS011;52677;50.898;10.854;2024-01-27T09:14:45;8.52;;;3.22;;
65896;SDS011;52677;50.898;10.854;2024-01-27T09:16:46;11.38;;;4.03;;
65896;SDS011;52677;50.898;10.854;2024-01-27T09:18:47;6.63;;;2.75;;
65896;SDS011;52677;50.898;10.854;2024-01-27T09:20:49;11.75;;;3.95;;
65896;SDS011;52677;50.898;10.854;2024-01-27T09:22:49;8.32;;;3.22;;
65896;SDS011;52677;50.898;10.854;2024-01-27T09:24:51;15.70;;;4.03;;
65896;SDS011;52677;50.898;10.854;2024-01-27T09:26:51;16.55;;;3.65;;
65896;SDS011;52677;50.898;10.854;2024-01-27T09:28:52;11.30;;;4.20;;
65896;SDS011;52677;50.898;10.854;2024-01-27T09:30:55;11.50;;;3.70;;
65896;SDS011;52677;50.898;10.854;2024-01-27T09:32:55;12.25;;;3.60;;
65896;SDS011;52677;50.898;10.854;2024-01-27T09:34:56;15.95;;;3.75;;
65896;SDS011;52677;50.898;10.854;2024-01-27T09:36:56;12.85;;;4.40;;
65896;SDS011;52677;50.898;10.854;2024-01-27T09:38:56;10.73;;;3.97;;
65896;SDS011;52677;50.898;10.854;2024-01-27T09:40:57;11.70;;;3.78;;
65896;SDS011;52677;50.898;10.854;2024-01-27T09:42:58;10.85;;;3.78;;
65896;SDS011;52677;50.898;10.854;2024-01-27T09:45:00;12.05;;;3.83;;
65896;SDS011;52677;50.898;10.854;2024-01-27T09:47:02;8.50;;;3.88;;
65896;SDS011;52677;50.898;10.854;2024-01-27T09:49:03;9.32;;;4.63;;
65896;SDS011;52677;50.898;10.854;2024-01-27T09:51:04;13.57;;;4.70;;
65896;SDS011;52677;50.898;10.854;2024-01-27T09:53:05;12.43;;;4.22;;
65896;SDS011;52677;50.898;10.854;2024-01-27T09:55:08;7.50;;;2.95;;
65896;SDS011;52677;50.898;10.854;2024-01-27T09:57:09;8.85;;;3.78;;
65896;SDS011;52677;50.898;10.854;2024-01-27T09:59:11;8.35;;;3.38;;
65896;SDS011;52677;50.898;10.854;2024-01-27T10:01:14;13.63;;;3.08;;
65896;SDS011;52677;50.898;10.854;2024-01-27T10:03:16;8.48;;;3.30;;
65896;SDS011;52677;50.898;10.854;2024-01-27T10:05:17;12.70;;;3.28;;
65896;SDS011;52677;50.898;10.854;2024-01-27T10:07:18;16.48;;;3.30;;
65896;SDS011;52677;50.898;10.854;2024-01-27T10:09:19;9.63;;;3.28;;
65896;SDS011;52677;50.898;10.854;2024-01-27T10:11:20;8.50;;;3.88;;
65896;SDS011;52677;50.898;10.854;2024-01-27T10:13:21;8.85;;;3.35;;
65896;SDS011;52677;50.898;10.854;2024-01-27T10:15:28;20.05;;;4.32;;
65896;SDS011;52677;50.898;10.854;2024-01-27T10:17:28;11.32;;;4.53;;
65896;SDS011;52677;50.898;10.854;2024-01-27T10:19:32;6.90;;;2.20;;
65896;SDS011;52677;50.898;10.854;2024-01-27T10:21:32;10.15;;;4.03;;
65896;SDS011;52677;50.898;10.854;2024-01-27T10:23:38;8.20;;;3.53;;
65896;SDS011;52677;50.898;10.854;2024-01-27T10:25:39;14.73;;;3.40;;
65896;SDS011;52677;50.898;10.854;2024-01-27T10:27:40;12.25;;;2.97;;
65896;SDS011;52677;50.898;10.854;2024-01-27T10:29:51;8.75;;;2.95;;
65896;SDS011;52677;50.898;10.854;2024-01-27T10:31:52;9.45;;;2.83;;
65896;SDS011;52677;50.898;10.854;2024-01-27T10:33:53;13.95;;;2.60;;
65896;SDS011;52677;50.898;10.854;2024-01-27T10:35:59;8.27;;;2.50;;
65896;SDS011;52677;50.898;10.854;2024-01-27T10:37:59;13.63;;;4.07;;
65896;SDS011;52677;50.898;10.854;2024-01-27T10:40:03;8.00;;;2.55;;
65896;SDS011;52677;50.898;10.854;2024-01-27T10:42:07;14.48;;;3.25;;
65896;SDS011;52677;50.898;10.854;2024-01-27T10:46:13;7.13;;;2.80;;
65896;SDS011;52677;50.898;10.854;2024-01-27T10:48:14;9.75;;;3.10;;
65896;SDS011;52677;50.898;10.854;2024-01-27T10:50:15;9.75;;;3.03;;
65896;SDS011;52677;50.898;10.854;2024-01-27T10:52:15;6.63;;;2.60;;
65896;SDS011;52677;50.898;10.854;2024-01-27T10:54:23;6.05;;;2.55;;
65896;SDS011;52677;50.898;10.854;2024-01-27T10:56:29;11.05;;;4.10;;
65896;SDS011;52677;50.898;10.854;2024-01-27T10:58:32;7.32;;;2.47;;
65896;SDS011;52677;50.898;10.854;2024-01-27T11:00:40;9.70;;;3.20;;
65896;SDS011;52677;50.898;10.854;2024-01-27T11:02:42;17.77;;;4.18;;
65896;SDS011;52677;50.898;10.854;2024-01-27T11:04:44;7.60;;;3.47;;
65896;SDS011;52677;50.898;10.854;2024-01-27T11:06:48;8.25;;;3.45;;
65896;SDS011;52677;50.898;10.854;2024-01-27T11:08:49;12.35;;;3.03;;
65896;SDS011;52677;50.898;10.854;2024-01-27T11:10:50;6.97;;;2.55;;
65896;SDS011;52677;50.898;10.854;2024-01-27T11:12:50;9.70;;;2.47;;
65896;SDS011;52677;50.898;10.854;2024-01-27T11:14:52;6.43;;;2.80;;
65896;SDS011;52677;50.898;10.854;2024-01-27T11:16:56;7.90;;;2.08;;
65896;SDS011;52677;50.898;10.854;2024-01-27T11:18:57;6.65;;;1.63;;
65896;SDS011;52677;50.898;10.854;2024-01-27T11:20:58;4.53;;;1.98;;
65896;SDS011;52677;50.898;10.854;2024-01-27T11:23:14;15.38;;;3.63;;
65896;SDS011;52677;50.898;10.854;2024-01-27T11:25:15;10.52;;;2.28;;
65896;SDS011;52677;50.898;10.854;2024-01-27T11:27:17;6.55;;;2.78;;
65896;SDS011;52677;50.898;10.854;2024-01-27T11:29:17;7.95;;;2.22;;
65896;SDS011;52677;50.898;10.854;2024-01-27T11:31:20;11.02;;;2.22;;
65896;SDS011;52677;50.898;10.854;2024-01-27T11:33:20;6.30;;;2.35;;
65896;SDS011;52677;50.898;10.854;2024-01-27T11:35:24;9.95;;;3.05;;
65896;SDS011;52677;50.898;10.854;2024-01-27T11:37:25;7.32;;;2.63;;
65896;SDS011;52677;50.898;10.854;2024-01-27T11:39:30;11.85;;;2.95;;
65896;SDS011;52677;50.898;10.854;2024-01-27T11:41:31;8.95;;;2.28;;
65896;SDS011;52677;50.898;10.854;2024-01-27T11:43:31;12.30;;;3.22;;
65896;SDS011;52677;50.898;10.854;2024-01-27T11:45:32;8.38;;;2.33;;
65896;SDS011;52677;50.898;10.854;2024-01-27T11:47:32;13.70;;;3.70;;
65896;SDS011;52677;50.898;10.854;2024-01-27T11:49:33;7.57;;;2.33;;
65896;SDS011;52677;50.898;10.854;2024-01-27T11:51:33;10.10;;;2.20;;
65896;SDS011;52677;50.898;10.854;2024-01-27T11:53:34;9.85;;;3.15;;
65896;SDS011;52677;50.898;10.854;2024-01-27T11:55:35;7.50;;;2.20;;
65896;SDS011;52677;50.898;10.854;2024-01-27T11:57:35;7.60;;;3.33;;
65896;SDS011;52677;50.898;10.854;2024-01-27T11:59:36;5.07;;;1.70;;